Map

Track Data

SID SEASON NUMBER BASIN SUBBASIN NAME ISO_TIME NATURE LAT LON WMO_WIND WMO_PRES WMO_AGENCY TRACK_TYPE DIST2LAND LANDFALL IFLAG USA_AGENCY USA_ATCF_ID USA_LAT USA_LON USA_RECORD USA_STATUS USA_WIND USA_PRES USA_SSHS USA_R34_NE USA_R34_SE USA_R34_SW USA_R34_NW USA_R50_NE USA_R50_SE USA_R50_SW USA_R50_NW USA_R64_NE USA_R64_SE USA_R64_SW USA_R64_NW USA_POCI USA_ROCI USA_RMW USA_EYE TOKYO_LAT TOKYO_LON TOKYO_GRADE TOKYO_WIND TOKYO_PRES TOKYO_R50_DIR TOKYO_R50_LONG TOKYO_R50_SHORT TOKYO_R30_DIR TOKYO_R30_LONG TOKYO_R30_SHORT TOKYO_LAND CMA_LAT CMA_LON CMA_CAT CMA_WIND CMA_PRES HKO_LAT HKO_LON HKO_CAT HKO_WIND HKO_PRES NEWDELHI_LAT NEWDELHI_LON NEWDELHI_GRADE NEWDELHI_WIND NEWDELHI_PRES NEWDELHI_CI NEWDELHI_DP NEWDELHI_POCI REUNION_LAT REUNION_LON REUNION_TYPE REUNION_WIND REUNION_PRES REUNION_TNUM REUNION_CI REUNION_RMW REUNION_R34_NE REUNION_R34_SE REUNION_R34_SW REUNION_R34_NW REUNION_R50_NE REUNION_R50_SE REUNION_R50_SW REUNION_R50_NW REUNION_R64_NE REUNION_R64_SE REUNION_R64_SW REUNION_R64_NW BOM_LAT BOM_LON BOM_TYPE BOM_WIND BOM_PRES BOM_TNUM BOM_CI BOM_RMW BOM_R34_NE BOM_R34_SE BOM_R34_SW BOM_R34_NW BOM_R50_NE BOM_R50_SE BOM_R50_SW BOM_R50_NW BOM_R64_NE BOM_R64_SE BOM_R64_SW BOM_R64_NW BOM_ROCI BOM_POCI BOM_EYE BOM_POS_METHOD BOM_PRES_METHOD NADI_LAT NADI_LON NADI_CAT NADI_WIND NADI_PRES WELLINGTON_LAT WELLINGTON_LON WELLINGTON_WIND WELLINGTON_PRES DS824_LAT DS824_LON DS824_STAGE DS824_WIND DS824_PRES TD9636_LAT TD9636_LON TD9636_STAGE TD9636_WIND TD9636_PRES TD9635_LAT TD9635_LON TD9635_WIND TD9635_PRES TD9635_ROCI NEUMANN_LAT NEUMANN_LON NEUMANN_CLASS NEUMANN_WIND NEUMANN_PRES MLC_LAT MLC_LON MLC_CLASS MLC_WIND MLC_PRES USA_GUST BOM_GUST BOM_GUST_PER REUNION_GUST REUNION_GUST_PER USA_SEAHGT USA_SEARAD_NE USA_SEARAD_SE USA_SEARAD_SW USA_SEARAD_NW STORM_SPEED STORM_DIR
1975288N13138 1975 109 WP MM FLOSSIE 1975-10-15 00:00:00 TS 13.2000 137.500 main 1296 1253 O________OOO__ jtwc_wp WP181975 13.2000 137.500 25 -1 13.2000 137.500 TC 25 13.2000 137.500 1 25 13.2000 137.500 25 1006 120 7 270
1975288N13138 1975 109 WP MM FLOSSIE 1975-10-15 03:00:00 TS 13.1974 137.116 main 1253 1211 P________PPP__ WP181975 13.1975 137.130 27 -1 13.1975 137.130 TC 27 13.1968 137.073 1 25 13.1975 137.130 27 1004 120 8 270
1975288N13138 1975 109 WP MM FLOSSIE 1975-10-15 06:00:00 TS 13.2012 136.682 main 1211 1157 O________OPO__ jtwc_wp WP181975 13.2000 136.700 30 -1 13.2000 136.700 TC 30 13.2047 136.627 1 25 13.2000 136.700 30 1003 120 9 272
1975288N13138 1975 109 WP MM FLOSSIE 1975-10-15 09:00:00 TS 13.2238 136.165 main 1157 1107 P________PPP__ WP181975 13.2200 136.172 27 -1 13.2200 136.172 TC 27 13.2353 136.142 1 25 13.2200 136.172 27 1003 150 10 274
1975288N13138 1975 109 WP MM FLOSSIE 1975-10-15 12:00:00 TS 13.2706 135.641 main 1096 1046 O__O_____OOO__ jtwc_wp WP181975 13.3000 135.600 25 -1 12.8000 136.300 TD 25 1004 13.3000 135.600 TC 25 13.3000 135.600 1 25 13.3000 135.600 25 1003 180 11 280
1975288N13138 1975 109 WP MM FLOSSIE 1975-10-15 15:00:00 TS 13.4058 135.084 main 1046 986 P__P_____PPP__ WP181975 13.4998 135.065 25 -1 12.8434 135.380 TD 25 1004 13.4998 135.065 TC 25 13.4050 134.992 1 23 13.4998 135.065 25 1002 180 12 283
1975288N13138 1975 109 WP MM FLOSSIE 1975-10-15 18:00:00 TS 13.5391 134.485 main 986 924 O__O_____OPO__ jtwc_wp WP181975 13.7000 134.500 25 -1 12.9000 134.600 TD 25 1004 13.7000 134.500 TC 25 13.5359 134.356 1 22 13.7000 134.500 25 1002 180 12 279
1975288N13138 1975 109 WP MM FLOSSIE 1975-10-15 21:00:00 TS 13.5953 133.854 main 924 862 P__P_____PPP__ WP181975 13.7727 133.827 22 -1 12.9845 134.047 TD 25 1004 13.7727 133.827 TC 22 13.6738 133.742 1 21 13.7727 133.827 22 1002 180 12 276
1975288N13138 1975 109 WP MM FLOSSIE 1975-10-16 00:00:00 TS 13.6600 133.280 main 862 809 O__O_____OOO__ jtwc_wp WP181975 13.8000 133.200 20 -1 13.1000 133.600 TD 25 1004 13.8000 133.200 TC 20 13.8000 133.200 1 20 13.8000 133.200 20 1002 180 10 278
1975288N13138 1975 109 WP MM FLOSSIE 1975-10-16 03:00:00 TS 13.7311 132.814 main 809 779 P__P_____PPP__ WP181975 13.8423 132.740 20 -1 13.2275 133.085 TD 25 1004 13.8423 132.740 TC 20 13.9010 132.763 1 20 13.8423 132.740 20 1002 150 8 281
1975288N13138 1975 109 WP MM FLOSSIE 1975-10-16 06:00:00 TS 13.8174 132.441 main 769 740 O__O_____OPO__ jtwc_wp WP181975 13.9000 132.400 20 -1 13.4000 132.600 TD 25 1004 13.9000 132.400 TC 20 13.9868 132.407 1 20 13.9000 132.400 20 1002 120 7 288
1975288N13138 1975 109 WP MM FLOSSIE 1975-10-16 09:00:00 TS 13.9438 132.126 main 740 722 P__P_____PPP__ WP181975 14.0074 132.105 20 -1 13.6423 132.192 TD 25 1004 14.0074 132.105 TC 20 14.0543 132.123 1 20 14.0074 132.105 20 1002 120 6 294
1975288N13138 1975 109 WP MM FLOSSIE 1975-10-16 12:00:00 TS 14.0600 131.880 main 725 704 O__O_____OOO__ jtwc_wp WP181975 14.1000 131.900 20 -1 13.9000 131.800 TD 25 1004 14.1000 131.900 TC 20 14.1000 131.900 1 20 14.1000 131.900 20 1002 120 4 293
1975288N13138 1975 109 WP MM FLOSSIE 1975-10-16 15:00:00 TS 14.1135 131.707 main 704 683 P__P_____PPP__ WP181975 14.1149 131.785 20 -1 14.1220 131.417 TD 25 1004 14.1149 131.785 TC 20 14.1007 131.762 1 21 14.1149 131.785 20 1002 120 3 283
1975288N13138 1975 109 WP MM FLOSSIE 1975-10-16 18:00:00 TS 14.1369 131.534 main 683 663 O__O_____OPO__ jtwc_wp WP181975 14.1000 131.700 20 -1 14.3000 130.900 TD 25 1004 14.1000 131.700 TC 20 14.0842 131.672 1 22 14.1000 131.700 20 1003 120 4 274
1975288N13138 1975 109 WP MM FLOSSIE 1975-10-16 21:00:00 TS 14.1446 131.292 main 663 636 P__P_____PPP__ WP181975 14.0699 131.595 22 -1 14.4378 130.103 TD 25 1004 14.0699 131.595 TC 22 14.0757 131.571 1 23 14.0699 131.595 22 1003 120 6 274
1975288N13138 1975 109 WP MM FLOSSIE 1975-10-17 00:00:00 TS 14.1800 130.960 main 636 580 O__O_____OOO__ jtwc_wp WP181975 14.1000 131.400 25 -1 14.5000 129.200 TD 25 1004 14.1000 131.400 TC 25 14.1000 131.400 1 25 14.1000 131.400 25 1003 120 9 279
1975288N13138 1975 109 WP MM FLOSSIE 1975-10-17 03:00:00 TS 14.2879 130.365 main 580 507 P__P_____PPP__ WP181975 14.2926 131.038 25 -1 14.4725 128.347 TD 25 1004 14.2926 131.038 TC 25 14.1755 131.114 1 25 14.2926 131.038 25 1003 120 14 279
1975288N13138 1975 109 WP MM FLOSSIE 1975-10-17 06:00:00 TS 14.3879 129.533 main 498 425 O_OO_____OPO__ jtwc_wp WP181975 14.5000 130.600 25 -1 14.0000 126.800 1 23 1002 14.4000 127.600 TD 25 1004 14.5000 130.600 TC 25 14.2938 130.731 1 25 14.5000 130.600 25 1003 120 17 274
1975288N13138 1975 109 WP MM FLOSSIE 1975-10-17 09:00:00 TS 14.4104 128.590 main 416 319 P_PP_____PPP__ WP181975 14.5651 130.215 25 -1 14.1577 126.300 1 23 1002 14.3270 127.070 TD 25 1004 14.5900 130.187 TC 25 14.4402 130.282 1 25 14.5900 130.187 25 1003 90 22 270
1975288N13138 1975 109 WP MM FLOSSIE 1975-10-17 12:00:00 TS 14.3692 127.292 1004 tokyo main 311 151 OOOO_____OOO__ jtwc_wp WP181975 14.6000 129.800 25 -1 14.0000 126.000 2 1004 0 0 0 14.3000 125.800 1 23 1002 14.3000 126.600 TD 25 1004 14.6000 129.800 TC 25 14.6000 129.800 1 25 14.6000 129.800 25 1004 60 29 269
1975288N13138 1975 109 WP MM FLOSSIE 1975-10-17 15:00:00 TS 14.3546 125.606 main 141 94 PPPP__________ WP181975 14.8243 129.232 -1 14.2028 125.488 2 1004 0 0 14.4149 125.300 1 23 1002 14.3702 125.970 TD 25 1004 TC 1 22 273
1975288N13138 1975 109 WP MM FLOSSIE 1975-10-17 18:00:00 TS 14.4727 125.073 1004 tokyo main 101 77 POOO__________ WP181975 15.1708 128.540 -1 14.4000 125.000 2 1004 0 0 0 14.5000 124.800 1 23 1002 14.5000 125.400 TD 25 1004 1 10 284
1975288N13138 1975 109 WP MM FLOSSIE 1975-10-17 21:00:00 TS 14.5897 124.638 main 74 70 PPPP__________ WP181975 15.6073 127.748 -1 14.5921 124.537 2 1004 0 0 14.5424 124.292 1 26 1002 14.6346 125.085 TD 25 1004 1 9 287
1975288N13138 1975 109 WP MM FLOSSIE 1975-10-18 00:00:00 TS 14.7273 124.218 1004 tokyo main 78 78 POOO__________ WP181975 16.1021 126.880 -1 14.8000 124.000 2 1004 0 0 0 14.6000 123.800 1 29 1002 14.8000 124.800 TD 25 1004 10 290
1975288N13138 1975 109 WP MM FLOSSIE 1975-10-18 03:00:00 TS 14.9131 123.707 main 109 104 PPPP__________ WP181975 16.6231 125.960 -1 15.0485 123.279 2 1003 0 0 14.7424 123.335 1 29 1001 15.0153 124.285 TD 25 1004 10 293
1975288N13138 1975 109 WP MM FLOSSIE 1975-10-18 06:00:00 TS 15.1000 123.300 1002 tokyo main 109 105 POOO__________ WP181975 17.1385 125.016 -1 15.3000 122.500 2 1002 0 0 0 14.9000 122.900 1 29 1000 15.2000 123.800 TD 25 1004 5 298
1975288N13138 1975 109 WP MM FLOSSIE 1975-10-18 09:00:00 TS 15.1715 123.208 main 116 113 PPPP__________ WP181975 17.6170 124.074 -1 15.5144 121.872 2 0 0 15.0077 122.491 1 29 1000 15.2573 123.555 TD 27 1004 2 317
1975288N13138 1975 109 WP MM FLOSSIE 1975-10-18 12:00:00 TS 15.2600 123.140 1002 tokyo main 125 125 PPOO__________ WP181975 18.0277 123.163 -1 15.7007 121.338 2 0 0 15.1000 122.100 1 29 1000 15.3000 123.400 TD 30 1004 3 358
1975288N13138 1975 109 WP MM FLOSSIE 1975-10-18 15:00:00 NR 15.4425 123.208 main 138 108 PPPP__________ WP181975 18.3406 122.310 -1 15.8606 120.885 2 0 0 15.2163 121.712 1 15.4425 123.208 TD 30 1004 4 338
1975288N13138 1975 109 WP MM FLOSSIE 1975-10-18 18:00:00 NR 15.6000 123.000 1002 tokyo main 108 85 PPPO__________ WP181975 18.5261 121.546 -1 15.9954 120.499 2 0 0 15.3437 121.332 1 15.6000 123.000 TD 30 1004 5 301
1975288N13138 1975 109 WP MM FLOSSIE 1975-10-18 21:00:00 NR 15.7000 122.765 main 85 0 PPPP__________ WP181975 18.5555 120.900 -1 16.1065 120.167 2 0 0 15.4782 120.956 1 15.7000 122.765 TD 30 1003 21 315
1975288N13138 1975 109 WP MM FLOSSIE 1975-10-19 00:00:00 TS 17.1000 121.450 1002 tokyo main 0 0 OPPO__________ jtwc_wp WP191975 18.4000 120.400 25 -1 16.1950 119.874 2 0 0 15.6161 120.582 1 15.8000 122.500 TD 30 1002 25 311
1975288N13138 1975 109 WP MM FLOSSIE 1975-10-19 03:00:00 TS 17.3098 120.822 main 0 0 PPPP__________ WP191975 18.0197 120.080 27 -1 16.2617 119.609 2 0 0 15.7537 120.206 1 15.9272 122.252 TD 30 1002 11 277
1975288N13138 1975 109 WP MM FLOSSIE 1975-10-19 06:00:00 TS 17.2371 120.340 998 tokyo main 10 10 OPPO__________ jtwc_wp WP191975 17.6000 119.800 30 -1 16.3078 119.356 2 0 0 15.8869 119.826 1 16.1000 121.900 TD 30 1002 9 255
1975288N13138 1975 109 WP MM FLOSSIE 1975-10-19 09:00:00 TS 17.0818 119.910 main 54 54 PPPP__________ WP191975 17.2423 119.523 30 -1 16.3339 119.102 2 0 0 16.0121 119.438 1 16.3944 121.413 TD 30 1001 9 244
1975288N13138 1975 109 WP MM FLOSSIE 1975-10-19 12:00:00 TS 16.8400 119.500 998 tokyo main 64 64 OPPO__________ jtwc_wp WP191975 16.9000 119.200 30 -1 16.3408 118.834 2 0 0 16.1253 119.040 1 16.6000 120.700 TD 30 1000 11 239
1975288N13138 1975 109 WP MM FLOSSIE 1975-10-19 15:00:00 TS 16.5242 118.935 main 98 98 PPPP__________ WP191975 16.5425 118.772 30 -1 16.3294 118.538 2 0 0 16.2225 118.628 1 16.4892 119.596 TD 30 998 13 241
1975288N13138 1975 109 WP MM FLOSSIE 1975-10-19 18:00:00 TS 16.2147 118.343 998 tokyo main 151 151 OOOO__________ jtwc_wp WP191975 16.2000 118.300 30 -1 16.3000 118.200 2 998 0 0 0 16.3000 118.200 1 29 999 16.3000 118.600 TD 30 996 11 242
1975288N13138 1975 109 WP MM FLOSSIE 1975-10-19 21:00:00 TS 16.0054 117.920 main 192 192 PPPP__________ WP191975 15.8696 117.888 30 -1 16.2819 117.820 2 998 0 0 16.3971 117.762 1 29 998 16.2690 118.238 TD 30 996 9 247
1975288N13138 1975 109 WP MM FLOSSIE 1975-10-20 00:00:00 TS 15.8692 117.496 998 tokyo main 235 235 OOOO__________ jtwc_wp WP191975 15.6000 117.400 30 -1 16.2000 117.400 2 998 0 0 0 16.4000 117.300 1 29 997 16.3000 118.100 TD 30 996 10 256
1975288N13138 1975 109 WP MM FLOSSIE 1975-10-20 03:00:00 TS 15.7527 116.903 main 300 300 PPPP__________ WP191975 15.3758 116.602 30 -1 16.0001 116.892 2 998 0 0 16.2452 116.755 1 29 996 16.3725 117.800 TD 30 996 10 259
1975288N13138 1975 109 WP MM FLOSSIE 1975-10-20 06:00:00 TS 15.6635 116.428 998 tokyo main 354 354 OOOO__________ jtwc_wp WP191975 15.3000 116.000 30 -1 15.8000 116.400 2 998 0 0 0 16.0000 116.300 1 29 995 16.4000 117.500 TD 30 996 6 263
1975288N13138 1975 109 WP MM FLOSSIE 1975-10-20 09:00:00 TS 15.6878 116.325 main 365 365 PPPP__________ WP191975 15.4923 116.140 30 -1 15.7425 115.975 2 996 0 0 15.7123 116.060 1 33 992 16.2649 117.242 TD 30 996 1 303
1975288N13138 1975 109 WP MM FLOSSIE 1975-10-20 12:00:00 TS 15.7286 116.329 994 tokyo main 365 365 OOOO__________ jtwc_wp WP191975 15.7000 116.400 30 -1 15.7000 115.700 2 994 0 0 0 15.5000 116.000 2 38 990 16.1000 117.000 TD 30 996 2 258
1975288N13138 1975 109 WP MM FLOSSIE 1975-10-20 15:00:00 TS 15.6503 116.146 main 386 386 PPPP__________ WP191975 15.6077 116.115 35 0 15.5049 115.618 2 992 0 0 15.4825 116.070 2 38 989 16.0574 116.773 TD 30 995 4 248
1975288N13138 1975 109 WP MM FLOSSIE 1975-10-20 18:00:00 TS 15.5964 115.983 990 tokyo main 398 398 OOOO__________ jtwc_wp WP191975 15.5000 115.800 40 0 15.4000 115.700 9 990 0 0 0 15.6000 116.200 2 38 989 16.0000 116.500 TD 30 994 2 274
1975288N13138 1975 109 WP MM FLOSSIE 1975-10-20 21:00:00 TS 15.6629 115.945 main 408 396 PPPP__________ WP191975 15.5974 115.818 42 0 15.5900 115.870 9 990 0 0 15.7700 116.258 2 43 987 15.7853 116.032 TD 32 992 2 8
1975288N13138 1975 109 WP MM FLOSSIE 1975-10-21 00:00:00 TS 15.8143 116.014 990 tokyo main 396 374 OOOO__________ jtwc_wp WP191975 15.8000 116.000 45 0 15.9000 116.100 9 990 0 0 0 16.0000 116.300 3 48 985 15.6000 115.700 TS 35 990 4 36
1975288N13138 1975 109 WP MM FLOSSIE 1975-10-21 03:00:00 TS 16.0011 116.202 main 374 353 PPPP__________ WP191975 16.0276 116.257 45 0 16.1275 116.323 9 987 0 0 16.2350 116.343 3 53 985 15.5675 115.818 TS 37 990 6 41
1975288N13138 1975 109 WP MM FLOSSIE 1975-10-21 06:00:00 TS 16.2514 116.410 985 tokyo main 354 335 OOOO__________ jtwc_wp WP191975 16.3000 116.500 45 0 16.4000 116.500 9 985 0 0 0 16.5000 116.400 3 58 985 15.7000 116.100 TS 40 990 7 32
1975288N13138 1975 109 WP MM FLOSSIE 1975-10-21 09:00:00 TS 16.5560 116.558 main 337 337 PPPP__________ WP191975 16.5849 116.632 47 0 16.7924 116.640 9 985 0 0 16.7700 116.552 3 58 982 16.0050 116.265 TS 40 987 7 13
1975288N13138 1975 109 WP MM FLOSSIE 1975-10-21 12:00:00 TS 16.9000 116.571 985 tokyo main 345 345 OOOO__________ jtwc_wp WP191975 16.9000 116.600 50 0 17.2000 116.600 9 985 0 0 0 17.1000 116.600 3 58 980 16.4000 116.400 TS 40 985 7 347
1975288N13138 1975 109 WP MM FLOSSIE 1975-10-21 15:00:00 TS 17.2555 116.392 main 378 378 PPPP__________ WP191975 17.2500 116.368 52 0 17.5151 116.283 9 982 0 0 17.5574 116.390 3 58 980 16.7349 116.567 TS 42 985 9 326
1975288N13138 1975 109 WP MM FLOSSIE 1975-10-21 18:00:00 TS 17.6104 116.067 980 tokyo main 419 419 OOOO__________ jtwc_wp WP191975 17.6000 116.000 55 0 17.8000 115.800 9 980 0 0 0 18.0000 116.000 3 58 980 17.1000 116.600 TS 45 985 10 315
1975288N13138 1975 109 WP MM FLOSSIE 1975-10-21 21:00:00 TS 17.9505 115.667 main 475 470 PPPP__________ WP191975 17.9225 115.615 57 0 18.1077 115.278 9 977 0 0 18.2878 115.500 3 58 978 17.5874 116.398 TS 47 982 10 308
1975288N13138 1975 109 WP MM FLOSSIE 1975-10-22 00:00:00 TS 18.2429 115.229 975 tokyo main 468 431 OOOO__________ jtwc_wp WP191975 18.2000 115.200 60 0 18.4000 114.800 9 975 0 0 0 18.5000 115.000 3 58 977 18.0000 116.000 STS 50 980 9 302
1975288N13138 1975 109 WP MM FLOSSIE 1975-10-22 03:00:00 TS 18.4474 114.837 main 421 384 PPPP__________ WP191975 18.4149 114.800 62 0 18.6422 114.527 9 975 0 0 18.7073 114.670 3 58 976 18.1305 115.435 STS 52 977 8 298
1975288N13138 1975 109 WP MM FLOSSIE 1975-10-22 06:00:00 TS 18.6264 114.462 975 tokyo main 384 337 OOOO__________ jtwc_wp WP191975 18.6000 114.400 65 1 18.9000 114.300 9 975 0 0 0 18.9000 114.400 3 58 975 18.2000 114.900 STS 55 975 8 299
1975288N13138 1975 109 WP MM FLOSSIE 1975-10-22 09:00:00 TS 18.8324 114.106 main 337 299 PPPP__________ WP191975 18.7774 114.000 67 1 19.2351 113.958 9 972 0 0 19.0850 114.100 3 63 972 18.4047 114.655 STS 55 975 8 305
1975288N13138 1975 109 WP MM FLOSSIE 1975-10-22 12:00:00 TS 19.0857 113.757 970 tokyo main 299 252 OOOO__________ jtwc_wp WP191975 19.0000 113.600 70 1 19.6000 113.600 9 970 0 0 0 19.3000 113.800 4 68 970 18.7000 114.500 STS 55 975 9 312
1975288N13138 1975 109 WP MM FLOSSIE 1975-10-22 15:00:00 TS 19.4169 113.426 main 252 220 PPPP__________ WP191975 19.3198 113.222 70 1 19.9497 113.330 9 970 0 0 19.5773 113.530 4 68 970 19.0998 114.295 STS 57 975 10 316
1975288N13138 1975 109 WP MM FLOSSIE 1975-10-22 18:00:00 TS 19.7874 113.043 970 tokyo main 210 176 OOOO__________ jtwc_wp WP191975 19.7000 112.800 70 1 20.3000 113.000 9 970 0 0 0 19.9000 113.200 4 68 970 19.5000 114.000 STS 60 975 11 311
1975288N13138 1975 109 WP MM FLOSSIE 1975-10-22 21:00:00 TS 20.1505 112.539 main 169 119 PPPP__________ WP191975 20.1000 112.273 67 1 20.6728 112.465 9 975 0 0 20.2274 112.745 4 68 972 19.7427 113.530 STS 60 977 12 306
1975288N13138 1975 109 WP MM FLOSSIE 1975-10-23 00:00:00 TS 20.5143 111.986 980 tokyo main 119 59 OOOO__________ jtwc_wp WP191975 20.5000 111.700 65 1 21.0000 111.900 9 980 0 0 0 20.6000 112.200 4 68 975 20.0000 113.000 STS 60 980 12 306
1975288N13138 1975 109 WP MM FLOSSIE 1975-10-23 03:00:00 TS 20.8864 111.468 main 59 30 PPPP__________ WP191975 20.8647 111.157 57 0 21.2295 111.500 9 982 0 0 21.0652 111.593 4 63 977 20.4572 112.558 STS 57 980 12 307
1975288N13138 1975 109 WP MM FLOSSIE 1975-10-23 06:00:00 TS 21.2464 110.950 985 tokyo main 30 0 OOOO__________ jtwc_wp WP191975 21.2000 110.600 50 0 21.4000 111.100 9 985 0 0 0 21.5000 111.000 3 58 980 20.9000 112.100 STS 55 980 12 304
1975288N13138 1975 109 WP MM FLOSSIE 1975-10-23 09:00:00 TS 21.5383 110.417 main 0 0 PPPP__________ WP191975 21.5080 110.011 40 0 21.5576 110.565 9 992 0 0 21.7723 110.512 3 43 987 21.1605 111.572 STS 50 987 11 299
1975288N13138 1975 109 WP MM FLOSSIE 1975-10-23 12:00:00 TS 21.7818 109.900 1000 tokyo main 0 0 OOOO__________ jtwc_wp WP191975 21.8000 109.400 30 -1 21.7000 110.000 2 1000 0 0 0 22.0000 110.100 1 29 995 21.3000 111.000 TS 45 995 9 305
1975288N13138 1975 109 WP MM FLOSSIE 1975-10-23 15:00:00 TS 22.0639 109.610 main 0 0 _PP___________ WP191975 -1 21.8476 109.483 2 1002 0 0 22.2802 109.738 1 26 1000 TS 8 309
1975288N13138 1975 109 WP MM FLOSSIE 1975-10-23 18:00:00 TS 22.3000 109.200 1004 tokyo main 0 _OO___________ -1 22.0000 109.000 2 1004 0 0 0 22.6000 109.400 1 23 1005 9 302

Digital Typhoon Data and Search

About IBTrACS Database

This database is a web-friendly format of International Best Track Archive for Climate Stewardship (IBTrACS), a global best track data archive curated by NOAA dating back to 1842.

Updated: 2021-12-03